EB5CGD-3 Weather Reports


time (UTC)temp
C
wind
direction
speed
KPH
gust
KPH
rain 1hr
cm
rain 24hr
cm
rain mn
cm
humidity
%
barometer
mb
20220524040029 17 270 6.4 6.4 0.00 0.00 0.00 75 1011.8
20220524035026 18 277 6.4 6.4 0.00 0.00 0.00 72 1011.9
20220524034023 18 273 6.4 9.7 0.00 0.00 0.00 73 1012.0
20220524033020 18 278 6.4 6.4 0.00 0.00 0.00 72 1011.8
20220524032017 18 293 6.4 9.7 0.00 0.00 0.00 70 1011.9
20220524031115 19 293 3.2 6.4 0.00 0.00 0.00 69 1011.8
20220524030112 19 293 3.2 6.4 0.00 0.00 0.00 68 1011.8
20220524025109 19 293 3.2 6.4 0.00 0.00 0.00 69 1011.8
20220524024106 18 293 4.8 6.4 0.00 0.00 0.00 69 1011.7
20220524023103 18 286 4.8 6.4 0.00 0.00 0.00 67 1011.8
20220524022100 18 273 6.4 9.7 0.00 0.00 0.00 67 1011.8
20220524021057 18 274 6.4 9.7 0.00 0.00 0.00 68 1011.7
20220524020055 18 289 4.8 6.4 0.00 0.00 0.00 68 1011.5
20220524015051 19 281 6.4 9.7 0.00 0.00 0.00 67 1011.6
20220524014049 18 293 4.8 6.4 0.00 0.00 0.00 68 1011.6
20220524013046 18 293 6.4 6.4 0.00 0.00 0.00 68 1011.7
20220524012043 18 270 6.4 6.4 0.00 0.00 0.00 68 1011.7
20220524011040 19 270 4.8 6.4 0.00 0.00 0.00 67 1011.8
20220524010037 19 270 4.8 6.4 0.00 0.00 0.00 67 1011.8
20220524005034 19 270 3.2 6.4 0.00 0.00 0.00 67 1011.7
20220524004032 19 279 4.8 6.4 0.00 0.00 0.00 67 1011.8
20220524003028 20 225 0.0 3.2 0.00 0.00 0.00 66 1011.7
20220524002026 20 208 1.6 3.2 0.00 0.00 0.00 65 1011.8
20220524001023 20 152 6.4 9.7 0.00 0.00 0.00 64 1011.8
20220524000027 20 160 9.7 12.9 0.00 0.00 0.00 63 1011.9
20220523235017 21 151 3.2 9.7 0.00 0.00 0.00 60 1011.7
20220523234114 21 266 8.0 11.3 0.00 0.00 0.00 59 1011.6
20220523233111 21 286 6.4 11.3 0.00 0.00 0.00 56 1011.4
20220523232109 21 281 8.0 11.3 0.00 0.00 0.00 59 1011.5
20220523231106 20 288 9.7 12.9 0.00 0.00 0.00 62 1011.4
20220523230103 21 285 8.0 11.3 0.00 0.00 0.00 60 1011.5
20220523225100 21 293 8.0 11.3 0.00 0.00 0.00 58 1011.6
20220523224100 21 293 8.0 11.3 0.00 0.00 0.00 58 1011.5
20220523223055 21 293 9.7 12.9 0.00 0.00 0.00 61 1011.4
20220523222051 22 274 6.4 6.4 0.00 0.00 0.00 57 1011.4
20220523221049 22 293 6.4 9.7 0.00 0.00 0.00 56 1011.4
20220523220046 23 293 8.0 12.9 0.00 0.00 0.00 55 1011.4
20220523215043 23 289 11.3 14.5 0.00 0.00 0.00 55 1011.5
20220523214040 23 307 12.9 17.7 0.00 0.00 0.00 54 1011.2
20220523213037 23 311 11.3 17.7 0.00 0.00 0.00 55 1011.3
20220523212034 23 308 12.9 17.7 0.00 0.00 0.00 55 1011.0
20220523211032 23 307 14.5 20.9 0.00 0.00 0.00 54 1010.9
20220523210029 23 315 14.5 20.9 0.00 0.00 0.00 55 1010.8
20220523205026 23 312 14.5 20.9 0.00 0.00 0.00 56 1010.8
20220523204023 23 311 14.5 20.9 0.00 0.00 0.00 57 1010.8
20220523203020 23 319 14.5 20.9 0.00 0.00 0.00 57 1010.6
20220523202017 23 326 12.9 17.7 0.00 0.00 0.00 57 1010.5
20220523201114 23 307 9.7 17.7 0.00 0.00 0.00 58 1010.5
20220523200112 24 307 8.0 11.3 0.00 0.00 0.00 58 1010.3
20220523195108 23 316 8.0 17.7 0.00 0.00 0.00 59 1010.1
20220523194105 24 296 9.7 14.5 0.00 0.00 0.00 59 1009.9
20220523193103 24 300 9.7 17.7 0.00 0.00 0.00 59 1009.8
20220523192100 25 314 9.7 17.7 0.00 0.00 0.00 58 1009.8
20220523191057 25 321 8.0 14.5 0.00 0.00 0.00 56 1009.6
20220523190054 25 330 8.0 14.5 0.00 0.00 0.00 54 1009.6
20220523185051 26 332 12.9 17.7 0.00 0.00 0.00 53 1009.6
20220523184048 26 343 11.3 20.9 0.00 0.00 0.00 53 1009.4
20220523183045 27 334 14.5 24.1 0.00 0.00 0.00 52 1009.2
20220523182042 28 314 12.9 20.9 0.00 0.00 0.00 51 1009.1
20220523181039 30 338 8.0 14.5 0.00 0.00 0.00 41 1008.8
20220523180037 31 1 6.4 11.3 0.00 0.00 0.00 35 1008.6
20220523175034 32 269 8.0 12.9 0.00 0.00 0.00 28 1008.6
20220523174031 32 266 6.4 11.3 0.00 0.00 0.00 27 1008.5
20220523173028 32 276 8.0 14.5 0.00 0.00 0.00 26 1008.5
20220523172025 32 263 9.7 14.5 0.00 0.00 0.00 26 1008.5
20220523171022 32 272 11.3 20.9 0.00 0.00 0.00 26 1008.5
20220523170019 32 258 11.3 17.7 0.00 0.00 0.00 26 1008.5
20220523165017 32 286 9.7 17.7 0.00 0.00 0.00 27 1008.4
20220523164114 32 261 8.0 17.7 0.00 0.00 0.00 27 1008.5
20220523163111 32 271 16.1 27.4 0.00 0.00 0.00 28 1008.6
20220523162108 32 247 11.3 20.9 0.00 0.00 0.00 28 1008.8
20220523161105 32 266 14.5 24.1 0.00 0.00 0.00 28 1008.8
20220523160102 32 266 12.9 24.1 0.00 0.00 0.00 29 1008.7
20220523155059 32 277 11.3 22.5 0.00 0.00 0.00 29 1008.8
20220523154057 32 273 12.9 27.4 0.00 0.00 0.00 29 1008.9
20220523153054 33 262 11.3 17.7 0.00 0.00 0.00 29 1009.0
20220523152051 32 262 8.0 17.7 0.00 0.00 0.00 28 1008.9
20220523151048 32 265 11.3 25.7 0.00 0.00 0.00 29 1009.0
20220523150045 32 267 11.3 24.1 0.00 0.00 0.00 30 1009.2
20220523145042 31 262 11.3 17.7 0.00 0.00 0.00 30 1009.3
20220523144040 32 272 16.1 25.7 0.00 0.00 0.00 30 1009.4
20220523143037 32 259 16.1 29.0 0.00 0.00 0.00 30 1009.5
20220523142034 32 257 11.3 29.0 0.00 0.00 0.00 30 1009.6
20220523141031 32 285 14.5 40.2 0.00 0.00 0.00 30 1009.8
20220523140028 32 289 14.5 24.1 0.00 0.00 0.00 31 1009.8
20220523135025 32 264 14.5 35.4 0.00 0.00 0.00 31 1009.9
20220523134022 32 249 12.9 25.7 0.00 0.00 0.00 30 1009.8
20220523133019 31 276 14.5 25.7 0.00 0.00 0.00 31 1009.9
20220523132016 32 265 11.3 27.4 0.00 0.00 0.00 30 1009.9
20220523131114 31 264 12.9 32.2 0.00 0.00 0.00 31 1010.1
20220523130111 31 276 9.7 27.4 0.00 0.00 0.00 31 1010.1
20220523125108 32 290 8.0 24.1 0.00 0.00 0.00 31 1010.2
20220523124105 31 285 11.3 22.5 0.00 0.00 0.00 29 1010.4
20220523123102 31 284 12.9 22.5 0.00 0.00 0.00 32 1010.2
20220523122059 31 279 12.9 20.9 0.00 0.00 0.00 32 1010.5
20220523121056 31 266 9.7 17.7 0.00 0.00 0.00 33 1010.5
20220523120053 31 271 6.4 12.9 0.00 0.00 0.00 32 1010.7
20220523115050 30 293 14.5 27.4 0.00 0.00 0.00 34 1010.7
20220523114047 30 262 11.3 20.9 0.00 0.00 0.00 35 1010.8
20220523113045 30 264 11.3 25.7 0.00 0.00 0.00 36 1011.1
20220523112042 30 278 8.0 20.9 0.00 0.00 0.00 35 1011.2
20220523111039 29 266 11.3 17.7 0.00 0.00 0.00 36 1011.3
20220523110036 29 296 11.3 27.4 0.00 0.00 0.00 36 1011.2
20220523105033 28 307 11.3 17.7 0.00 0.00 0.00 37 1011.5
20220523104030 28 297 9.7 17.7 0.00 0.00 0.00 38 1011.5
20220523103027 27 275 16.1 27.4 0.00 0.00 0.00 39 1011.6
20220523102024 27 298 16.1 29.0 0.00 0.00 0.00 41 1011.7
20220523101022 27 280 11.3 22.5 0.00 0.00 0.00 41 1011.8
20220523100019 27 274 12.9 22.5 0.00 0.00 0.00 42 1011.8
20220523095016 27 275 16.1 38.6 0.00 0.00 0.00 42 1011.9
20220523094114 26 284 22.5 35.4 0.00 0.00 0.00 42 1011.9
20220523093111 26 277 20.9 32.2 0.00 0.00 0.00 44 1012.0
20220523092107 26 277 16.1 25.7 0.00 0.00 0.00 44 1011.9
20220523091105 26 278 14.5 24.1 0.00 0.00 0.00 44 1012.0
20220523090102 26 265 16.1 27.4 0.00 0.00 0.00 45 1012.1
20220523085059 26 274 14.5 22.5 0.00 0.00 0.00 46 1012.1
20220523084056 26 269 11.3 22.5 0.00 0.00 0.00 46 1012.1
20220523083054 25 273 14.5 25.7 0.00 0.00 0.00 47 1012.2
20220523082051 24 285 17.7 29.0 0.00 0.00 0.00 48 1012.4
20220523081048 24 265 19.3 29.0 0.00 0.00 0.00 49 1012.3
20220523080045 24 285 20.9 33.8 0.00 0.00 0.00 49 1012.2
20220523075042 23 282 19.3 29.0 0.00 0.00 0.00 50 1012.3
20220523074040 23 304 11.3 25.7 0.00 0.00 0.00 50 1012.2
20220523073037 23 280 11.3 25.7 0.00 0.00 0.00 51 1012.3
20220523072034 23 299 11.3 22.5 0.00 0.00 0.00 52 1012.3
20220523071031 22 289 14.5 25.7 0.00 0.00 0.00 54 1012.3
20220523070028 22 289 14.5 25.7 0.00 0.00 0.00 55 1012.2
20220523065025 22 292 17.7 32.2 0.00 0.00 0.00 57 1012.0
20220523064022 21 289 17.7 33.8 0.00 0.00 0.00 57 1012.3
20220523063019 21 289 11.3 24.1 0.00 0.00 0.00 58 1012.4
20220523062016 21 254 11.3 24.1 0.00 0.00 0.00 58 1012.4
20220523061113 21 298 8.0 17.7 0.00 0.00 0.00 58 1012.1
20220523060111 21 285 14.5 32.2 0.00 0.00 0.00 59 1011.7
20220523055108 20 282 16.1 32.2 0.00 0.00 0.00 61 1011.9
20220523054105 20 283 14.5 25.7 0.00 0.00 0.00 61 1012.2
20220523053102 20 279 12.9 27.4 0.00 0.00 0.00 62 1012.4
20220523052059 20 285 9.7 17.7 0.00 0.00 0.00 62 1012.4
20220523051057 20 279 4.8 9.7 0.00 0.00 0.00 61 1012.3
20220523050054 20 288 9.7 17.7 0.00 0.00 0.00 61 1012.2
20220523045051 20 290 12.9 22.5 0.00 0.00 0.00 60 1011.9
20220523044048 20 276 14.5 25.7 0.00 0.00 0.00 58 1011.8
20220523043045 21 273 12.9 25.7 0.00 0.00 0.00 56 1011.8
20220523042042 21 285 20.9 38.6 0.00 0.00 0.00 55 1011.8
20220523041040 21 274 14.5 29.0 0.00 0.00 0.00 54 1011.9